Time;durP1;ratioP1;P1;durP2;ratioP2;P2;SDS_P1;SDS_P2;PMS_P1;PMS_P2;Temp;Humidity;BMP_temperature;BMP_pressure;BME280_temperature;BME280_humidity;BME280_pressure;Samples;Min_cycle;Max_cycle;Signal;HPM_P1;HPM_P2
2024/01/23 00:01:35;;;;;;;179.48;68.28;;;;;;;8.24;nan;99379.00;5052498;28;20036;-74
2024/01/23 00:04:04;;;;;;;185.15;70.63;;;;;;;8.14;nan;99379.94;5086331;28;20483;-74
2024/01/23 00:06:33;;;;;;;182.90;71.63;;;;;;;8.22;nan;99383.63;5087092;28;20422;-74
2024/01/23 00:09:03;;;;;;;190.65;74.90;;;;;;;8.24;nan;99392.19;5068237;28;20054;-74
2024/01/23 00:11:32;;;;;;;183.60;73.25;;;;;;;8.14;nan;99373.88;5086580;28;20638;-74
2024/01/23 00:14:01;;;;;;;191.70;74.30;;;;;;;8.23;nan;99390.56;5086145;28;20046;-74
2024/01/23 00:16:30;;;;;;;194.23;73.63;;;;;;;8.29;nan;99398.66;5086395;28;20044;-74
2024/01/23 00:19:00;;;;;;;199.85;75.22;;;;;;;8.32;nan;99394.91;5069026;28;20059;-74
2024/01/23 00:21:29;;;;;;;215.45;78.32;;;;;;;8.20;nan;99401.41;5085907;28;20048;-74
2024/01/23 00:23:59;;;;;;;190.13;74.80;;;;;;;8.29;nan;99403.09;5086017;28;20257;-74
2024/01/23 00:26:29;;;;;;;201.43;78.90;;;;;;;8.23;nan;99406.38;5085546;28;20776;-75
2024/01/23 00:28:59;;;;;;;198.80;77.97;;;;;;;8.25;nan;99409.69;5085853;28;20052;-74
2024/01/23 00:31:28;;;;;;;195.30;76.22;;;;;;;8.22;nan;99404.72;5084869;28;20127;-73
2024/01/23 00:33:57;;;;;;;197.30;78.38;;;;;;;8.33;nan;99405.28;5084667;28;20048;-74
2024/01/23 00:36:26;;;;;;;199.80;77.32;;;;;;;8.27;nan;99392.72;5085569;28;20574;-74
2024/01/23 00:38:55;;;;;;;195.93;75.53;;;;;;;8.32;nan;99405.47;5068149;28;20143;-74
2024/01/23 00:41:25;;;;;;;190.65;75.70;;;;;;;8.30;nan;99402.13;5085284;28;20051;-73
2024/01/23 00:43:54;;;;;;;209.73;77.18;;;;;;;8.37;nan;99405.78;5085694;28;20455;-74
2024/01/23 00:46:23;;;;;;;204.32;76.70;;;;;;;8.27;nan;99403.28;5087023;28;20473;-74
2024/01/23 00:48:52;;;;;;;204.93;78.38;;;;;;;8.31;nan;99417.00;5085903;28;20052;-73
2024/01/23 00:51:22;;;;;;;213.60;79.45;;;;;;;8.27;nan;99407.72;5085092;28;20781;-74
2024/01/23 00:53:52;;;;;;;200.00;76.47;;;;;;;8.33;nan;99422.91;5075631;28;20105;-74
2024/01/23 00:56:21;;;;;;;196.43;74.65;;;;;;;8.16;nan;99423.81;5083579;28;21477;-74
2024/01/23 00:58:50;;;;;;;204.82;74.72;;;;;;;8.08;nan;99422.81;5082023;28;20075;-74
2024/01/23 01:01:19;;;;;;;182.27;70.07;;;;;;;8.19;nan;99428.81;5091294;28;20064;-73
2024/01/23 01:03:49;;;;;;;187.82;71.20;;;;;;;8.22;nan;99439.03;5092264;28;20055;-74
2024/01/23 01:06:18;;;;;;;193.80;69.68;;;;;;;8.19;nan;99419.03;5084356;28;20426;-73
2024/01/23 01:08:47;;;;;;;194.85;70.10;;;;;;;8.01;nan;99432.34;5084599;28;20450;-74
2024/01/23 01:11:17;;;;;;;194.65;72.97;;;;;;;8.02;nan;99428.72;5066271;28;20465;-74
2024/01/23 01:13:46;;;;;;;185.05;69.05;;;;;;;7.99;nan;99415.84;5085065;28;20054;-75
2024/01/23 01:16:15;;;;;;;189.15;69.65;;;;;;;8.03;nan;99419.00;5084398;28;20350;-75
2024/01/23 01:18:45;;;;;;;164.80;64.18;;;;;;;8.09;nan;99421.84;5084958;28;20052;-75
2024/01/23 01:21:14;;;;;;;174.30;69.03;;;;;;;8.02;nan;99417.34;5079976;28;20407;-75
2024/01/23 01:23:43;;;;;;;167.10;64.95;;;;;;;8.03;nan;99419.81;5067583;28;20553;-74
2024/01/23 01:26:12;;;;;;;179.70;65.00;;;;;;;8.09;nan;99419.19;5078502;28;20063;-74
2024/01/23 01:28:42;;;;;;;170.45;62.38;;;;;;;8.17;nan;99409.66;5083464;28;20055;-75
2024/01/23 01:31:11;;;;;;;165.80;64.13;;;;;;;8.10;nan;99414.72;5084616;28;20066;-74
2024/01/23 01:33:40;;;;;;;162.02;62.40;;;;;;;7.99;nan;99413.22;5085074;28;20150;-74
2024/01/23 01:36:10;;;;;;;151.88;61.88;;;;;;;7.99;nan;99420.31;5084769;28;20375;-74
2024/01/23 01:38:39;;;;;;;155.65;62.40;;;;;;;8.21;nan;99413.63;5084015;28;20072;-75
2024/01/23 01:41:15;;;;;;;163.23;61.85;;;;;;;8.12;nan;99420.69;5097084;28;20053;-74
2024/01/23 01:43:45;;;;;;;153.73;58.88;;;;;;;8.06;nan;99423.94;5094113;28;20044;-74
2024/01/23 01:46:23;;;;;;;153.98;58.45;;;;;;;8.10;nan;99425.28;5083024;28;20542;-74
2024/01/23 01:48:55;;;;;;;150.90;56.42;;;;;;;8.02;nan;99423.44;5067149;28;20055;-74
2024/01/23 01:51:27;;;;;;;149.50;56.25;;;;;;;7.93;nan;99434.94;5084598;28;20047;-74
2024/01/23 01:53:57;;;;;;;159.00;58.80;;;;;;;8.07;nan;99426.44;5077131;28;20071;-74
2024/01/23 01:56:28;;;;;;;146.30;57.28;;;;;;;8.13;nan;99425.81;5084873;28;20063;-74
2024/01/23 01:59:00;;;;;;;145.05;58.13;;;;;;;8.19;nan;99420.88;5084896;28;20048;-74
2024/01/23 02:01:30;;;;;;;158.55;60.97;;;;;;;8.16;nan;99426.47;5084357;28;20074;-74
2024/01/23 02:03:59;;;;;;;150.18;57.90;;;;;;;8.29;nan;99429.47;5086214;28;20055;-74
2024/01/23 02:06:30;;;;;;;131.75;53.45;;;;;;;8.22;nan;99429.31;5067138;28;20054;-74
2024/01/23 02:09:00;;;;;;;126.63;51.83;;;;;;;8.22;nan;99431.13;5084949;28;20676;-74
2024/01/23 02:11:29;;;;;;;127.55;51.80;;;;;;;8.10;nan;99434.03;5084689;28;20052;-73
2024/01/23 02:13:59;;;;;;;126.28;48.25;;;;;;;8.15;nan;99433.53;5085109;28;20142;-74
2024/01/23 02:16:28;;;;;;;121.43;48.58;;;;;;;8.08;nan;99432.53;5084889;28;20067;-74
2024/01/23 02:18:57;;;;;;;119.95;46.53;;;;;;;8.08;nan;99437.81;5047034;28;20345;-73
2024/01/23 02:21:26;;;;;;;116.07;46.35;;;;;;;8.15;nan;99433.53;5072461;28;20469;-74
2024/01/23 02:23:57;;;;;;;119.82;46.35;;;;;;;8.01;nan;99437.59;5081126;28;20067;-73
2024/01/23 02:26:26;;;;;;;107.78;45.30;;;;;;;7.93;nan;99434.94;5081550;28;20044;-74
2024/01/23 02:28:55;;;;;;;109.13;45.30;;;;;;;7.86;nan;99448.91;5080847;28;20142;-74
2024/01/23 02:31:25;;;;;;;114.03;45.65;;;;;;;7.88;nan;99444.28;5087816;28;20049;-74
2024/01/23 02:33:55;;;;;;;108.43;45.10;;;;;;;7.88;nan;99442.50;5067956;28;20044;-74
2024/01/23 02:36:24;;;;;;;118.28;47.28;;;;;;;7.84;nan;99432.41;5081875;28;20058;-74
2024/01/23 02:38:53;;;;;;;117.45;47.03;;;;;;;7.97;nan;99446.81;5076034;28;20538;-74
2024/01/23 02:41:23;;;;;;;118.05;45.78;;;;;;;8.03;nan;99435.66;5069324;28;20475;-73
2024/01/23 02:43:52;;;;;;;115.05;47.47;;;;;;;8.02;nan;99435.78;5071205;28;20044;-74
2024/01/23 02:46:22;;;;;;;119.57;48.03;;;;;;;7.78;nan;99436.53;5072227;28;20519;-74
2024/01/23 02:48:51;;;;;;;125.03;49.20;;;;;;;7.90;nan;99445.81;5047531;28;20052;-69
2024/01/23 02:51:21;;;;;;;134.38;50.75;;;;;;;7.83;nan;99443.97;5070287;28;20406;-73
2024/01/23 02:53:50;;;;;;;131.52;51.35;;;;;;;7.79;nan;99448.69;5065190;28;20237;-73
2024/01/23 02:56:20;;;;;;;135.70;53.25;;;;;;;7.81;nan;99456.47;5074560;28;20135;-74
2024/01/23 02:58:49;;;;;;;137.88;54.70;;;;;;;7.96;nan;99449.63;5080271;28;20048;-74
2024/01/23 03:01:18;;;;;;;129.40;54.20;;;;;;;8.06;nan;99461.72;5087235;28;20455;-74
2024/01/23 03:03:47;;;;;;;145.32;59.30;;;;;;;8.05;nan;99457.41;5082141;28;20143;-73
2024/01/23 03:06:18;;;;;;;142.45;58.35;;;;;;;8.02;nan;99460.38;5060439;28;20055;-73
2024/01/23 03:08:47;;;;;;;157.40;61.20;;;;;;;8.08;nan;99465.03;5055895;28;20044;-69
2024/01/23 03:11:17;;;;;;;156.48;64.10;;;;;;;8.24;nan;99463.44;5053882;28;20040;-71
2024/01/23 03:13:46;;;;;;;161.45;64.68;;;;;;;8.21;nan;99477.78;5066518;28;20071;-74
2024/01/23 03:16:16;;;;;;;164.07;61.78;;;;;;;8.15;nan;99470.47;5074320;28;20137;-74
2024/01/23 03:18:48;;;;;;;158.02;62.92;;;;;;;7.95;nan;99477.00;5067735;28;20468;-73
2024/01/23 03:21:17;;;;;;;159.45;63.58;;;;;;;8.05;nan;99478.50;5026461;28;20479;-73
2024/01/23 03:23:47;;;;;;;168.73;62.08;;;;;;;8.24;nan;99479.25;5068681;28;20055;-74
2024/01/23 03:26:17;;;;;;;162.85;65.82;;;;;;;8.16;nan;99476.59;5058817;28;20044;-75
2024/01/23 03:28:48;;;;;;;165.93;65.50;;;;;;;8.17;nan;99480.88;5072264;28;20115;-74
2024/01/23 03:31:17;;;;;;;171.52;67.10;;;;;;;8.08;nan;99488.78;5087392;28;20123;-73
2024/01/23 03:33:46;;;;;;;154.63;61.55;;;;;;;7.95;nan;99483.09;5080793;28;20044;-73
2024/01/23 03:36:16;;;;;;;155.32;61.80;;;;;;;8.11;nan;99479.69;5085446;28;20229;-73
2024/01/23 03:38:46;;;;;;;161.60;64.15;;;;;;;8.36;nan;99486.78;5071013;28;20135;-74
2024/01/23 03:41:15;;;;;;;152.57;60.00;;;;;;;8.27;nan;99494.78;5082869;28;20047;-73
2024/01/23 03:43:48;;;;;;;141.52;59.90;;;;;;;8.06;nan;99503.91;5041785;28;20044;-74
2024/01/23 03:46:17;;;;;;;136.90;56.22;;;;;;;8.29;nan;99493.66;5054290;28;20040;-74
2024/01/23 03:48:46;;;;;;;140.60;57.38;;;;;;;8.48;nan;99505.78;5085346;28;20612;-74
2024/01/23 03:51:16;;;;;;;133.60;55.38;;;;;;;8.46;nan;99505.94;5078362;28;20162;-74
2024/01/23 03:53:45;;;;;;;136.55;56.25;;;;;;;8.31;nan;99506.72;5071256;28;20734;-74
2024/01/23 03:56:15;;;;;;;133.95;56.47;;;;;;;8.48;nan;99513.72;5082533;28;20055;-73
2024/01/23 03:58:45;;;;;;;157.77;59.17;;;;;;;8.53;nan;99512.25;5086925;28;20379;-71
2024/01/23 04:01:14;;;;;;;142.07;58.35;;;;;;;8.58;nan;99507.28;5084734;28;20136;-75
2024/01/23 04:03:44;;;;;;;156.82;59.35;;;;;;;8.53;nan;99517.53;5083248;28;20143;-74
2024/01/23 04:06:13;;;;;;;155.85;63.72;;;;;;;8.68;nan;99517.72;5083530;28;20349;-74
2024/01/23 04:08:44;;;;;;;159.38;63.95;;;;;;;8.56;nan;99521.66;5088255;28;20044;-74
2024/01/23 04:11:13;;;;;;;165.80;64.22;;;;;;;8.69;nan;99524.69;5089404;28;20044;-74
2024/01/23 04:13:44;;;;;;;184.85;70.13;;;;;;;8.37;nan;99517.44;5072506;28;20821;-74
2024/01/23 04:16:14;;;;;;;170.70;65.90;;;;;;;8.22;nan;99534.00;5078872;28;20550;-74
2024/01/23 04:18:43;;;;;;;165.27;65.13;;;;;;;8.51;nan;99526.59;5073123;28;20462;-75
2024/01/23 04:21:16;;;;;;;157.15;66.68;;;;;;;8.68;nan;99528.28;5038124;28;20467;-74
2024/01/23 04:23:46;;;;;;;165.70;63.95;;;;;;;8.79;nan;99532.47;5073919;28;20044;-75
2024/01/23 04:26:18;;;;;;;178.55;62.97;;;;;;;8.93;nan;99531.84;5089315;28;20467;-73
2024/01/23 04:28:49;;;;;;;159.40;63.03;;;;;;;8.58;nan;99535.53;5069822;28;20064;-74
2024/01/23 04:31:18;;;;;;;147.43;61.38;;;;;;;8.53;nan;99545.75;5062092;28;20041;-74
2024/01/23 04:33:49;;;;;;;148.85;59.35;;;;;;;8.79;nan;99549.13;5058380;28;20055;-74
2024/01/23 04:36:19;;;;;;;153.55;63.00;;;;;;;8.75;nan;99558.38;5062935;28;20375;-74
2024/01/23 04:38:48;;;;;;;164.00;66.78;;;;;;;8.72;nan;99557.88;5061834;28;20060;-74
2024/01/23 04:41:17;;;;;;;159.90;60.95;;;;;;;8.65;nan;99562.13;5058577;28;20384;-74
2024/01/23 04:43:47;;;;;;;150.45;59.55;;;;;;;8.68;nan;99559.97;5062699;28;20044;-74
2024/01/23 04:46:16;;;;;;;143.23;58.72;;;;;;;8.64;nan;99561.28;5054794;28;20075;-73
2024/01/23 04:48:46;;;;;;;150.20;58.08;;;;;;;8.58;nan;99564.59;5060502;28;20053;-73
2024/01/23 04:51:16;;;;;;;157.52;60.60;;;;;;;8.57;nan;99560.28;5064181;28;20121;-75
2024/01/23 04:53:45;;;;;;;154.75;61.42;;;;;;;8.60;nan;99561.75;5060591;28;20064;-75
2024/01/23 04:56:14;;;;;;;153.15;59.83;;;;;;;8.76;nan;99564.50;5056769;28;20102;-75
2024/01/23 04:58:43;;;;;;;148.45;56.42;;;;;;;8.89;nan;99573.63;5057880;28;20151;-74
2024/01/23 05:01:13;;;;;;;147.18;52.20;;;;;;;8.96;nan;99566.69;5060908;28;20037;-73
2024/01/23 05:03:42;;;;;;;134.45;52.42;;;;;;;8.88;nan;99568.47;5043110;28;20052;-74
2024/01/23 05:06:12;;;;;;;129.23;50.00;;;;;;;8.98;nan;99574.47;5055481;28;20123;-74
2024/01/23 05:08:41;;;;;;;131.40;51.67;;;;;;;8.75;nan;99565.47;5055385;28;20058;-72
2024/01/23 05:11:10;;;;;;;137.35;51.90;;;;;;;9.05;nan;99564.91;5046443;28;20771;-73
2024/01/23 05:13:42;;;;;;;143.38;53.28;;;;;;;8.98;nan;99577.09;5056097;28;20055;-74
2024/01/23 05:16:12;;;;;;;143.00;51.30;;;;;;;8.74;nan;99569.91;5057323;28;20558;-74
2024/01/23 05:18:41;;;;;;;135.77;52.58;;;;;;;8.70;nan;99575.69;5063570;28;20067;-73
2024/01/23 05:21:11;;;;;;;134.55;50.72;;;;;;;8.84;nan;99562.69;5063660;28;20041;-75
2024/01/23 05:23:41;;;;;;;156.98;57.78;;;;;;;8.92;nan;99559.25;5061648;28;20044;-74
2024/01/23 05:26:10;;;;;;;145.30;52.00;;;;;;;8.61;nan;99558.97;5058675;28;20047;-74
2024/01/23 05:28:40;;;;;;;145.20;50.95;;;;;;;9.01;nan;99559.13;5067158;28;20109;-71
2024/01/23 05:31:09;;;;;;;145.45;54.00;;;;;;;9.31;nan;99556.84;5081546;28;20040;-73
2024/01/23 05:33:38;;;;;;;142.15;50.60;;;;;;;9.41;nan;99558.34;5067046;28;20036;-71
2024/01/23 05:36:10;;;;;;;152.95;54.05;;;;;;;9.19;nan;99552.88;5086263;28;20044;-68
2024/01/23 05:38:39;;;;;;;160.07;53.60;;;;;;;9.21;nan;99542.94;5084512;28;20087;-71
2024/01/23 05:41:08;;;;;;;139.77;51.92;;;;;;;9.15;nan;99538.34;5077579;28;20386;-73
2024/01/23 05:43:38;;;;;;;138.25;52.65;;;;;;;9.53;nan;99532.41;5081583;28;20056;-72
2024/01/23 05:46:08;;;;;;;148.88;51.85;;;;;;;9.77;nan;99529.75;5085463;28;20044;-71
2024/01/23 05:48:37;;;;;;;140.00;51.63;;;;;;;9.73;nan;99540.84;5083119;28;20044;-72
2024/01/23 05:51:06;;;;;;;133.13;49.83;;;;;;;9.71;nan;99532.22;5090018;28;20553;-72
2024/01/23 05:53:36;;;;;;;140.68;52.17;;;;;;;9.61;nan;99526.28;5083439;28;20039;-71
2024/01/23 05:56:06;;;;;;;130.65;49.63;;;;;;;9.89;nan;99525.78;5081050;28;20545;-71
2024/01/23 05:58:35;;;;;;;124.75;50.03;;;;;;;10.00;nan;99523.78;5054347;28;20075;-72
2024/01/23 06:01:04;;;;;;;130.98;50.95;;;;;;;9.40;nan;99521.50;5085739;28;20048;-70
2024/01/23 06:03:34;;;;;;;130.50;49.20;;;;;;;9.79;nan;99514.53;5071038;28;20140;-70
2024/01/23 06:06:03;;;;;;;136.07;51.22;;;;;;;9.89;nan;99515.19;5080913;28;20058;-70
2024/01/23 06:08:32;;;;;;;132.32;53.30;;;;;;;9.63;nan;99508.44;5090561;28;20047;-70
2024/01/23 06:11:02;;;;;;;138.02;50.08;;;;;;;10.08;nan;99510.53;5077081;28;20059;-70
2024/01/23 06:13:31;;;;;;;136.07;50.60;;;;;;;10.24;nan;99499.91;5102390;28;20645;-72
2024/01/23 06:16:00;;;;;;;140.80;52.67;;;;;;;10.18;nan;99497.94;5088043;28;20058;-73
2024/01/23 06:18:30;;;;;;;127.78;48.90;;;;;;;10.04;nan;99496.81;5085757;28;20044;-72
2024/01/23 06:20:59;;;;;;;122.85;48.13;;;;;;;10.12;nan;99494.13;5087858;28;20052;-72
2024/01/23 06:23:28;;;;;;;132.00;49.42;;;;;;;10.28;nan;99490.63;5086611;28;20040;-74
2024/01/23 06:25:58;;;;;;;126.68;50.85;;;;;;;10.61;nan;99480.72;5091034;28;20529;-75
2024/01/23 06:28:27;;;;;;;145.60;54.45;;;;;;;10.62;nan;99483.19;5089063;28;20413;-75
2024/01/23 06:30:58;;;;;;;147.60;53.70;;;;;;;11.07;nan;99481.59;5065732;28;20059;-72
2024/01/23 06:33:27;;;;;;;132.40;51.00;;;;;;;11.49;nan;99484.59;5068281;28;20577;-74
2024/01/23 06:35:57;;;;;;;122.95;49.38;;;;;;;11.59;nan;99474.56;5087111;28;20054;-74
2024/01/23 06:38:27;;;;;;;126.75;50.13;;;;;;;10.99;nan;99469.22;5087422;28;20048;-75
2024/01/23 06:40:56;;;;;;;129.07;53.33;;;;;;;10.96;nan;99468.75;5085518;28;20399;-73
2024/01/23 06:43:25;;;;;;;123.93;50.13;;;;;;;11.22;nan;99458.63;5085833;28;20086;-73
2024/01/23 06:45:58;;;;;;;132.25;51.67;;;;;;;11.26;nan;99457.25;5087490;28;20052;-74
2024/01/23 06:48:28;;;;;;;136.07;52.88;;;;;;;11.20;nan;99453.50;5087053;28;20058;-73
2024/01/23 06:50:57;;;;;;;135.23;53.92;;;;;;;11.43;nan;99445.50;5079254;28;20568;-74
2024/01/23 06:53:26;;;;;;;125.07;54.95;;;;;;;11.83;nan;99436.34;5085979;28;20048;-73
2024/01/23 06:55:56;;;;;;;133.10;54.72;;;;;;;11.60;nan;99431.09;5087109;28;20052;-72
2024/01/23 06:58:25;;;;;;;122.05;51.08;;;;;;;11.78;nan;99432.59;5085888;28;20454;-72
2024/01/23 07:00:54;;;;;;;122.65;52.40;;;;;;;11.93;nan;99421.00;5047849;28;20143;-73
2024/01/23 07:03:23;;;;;;;141.40;55.80;;;;;;;11.94;nan;99416.50;5065462;28;20050;-72
2024/01/23 07:05:52;;;;;;;135.30;56.25;;;;;;;11.89;nan;99408.28;5080579;28;20052;-73
2024/01/23 07:08:22;;;;;;;140.90;55.17;;;;;;;11.64;nan;99413.78;5086663;28;20044;-73
2024/01/23 07:10:51;;;;;;;132.80;55.58;;;;;;;11.71;nan;99401.47;5068734;28;20574;-72
2024/01/23 07:13:22;;;;;;;124.30;52.75;;;;;;;11.74;nan;99394.16;5086379;28;20044;-72
2024/01/23 07:15:51;;;;;;;121.63;52.33;;;;;;;11.98;nan;99388.59;5086358;28;20059;-72
2024/01/23 07:18:20;;;;;;;135.55;55.75;;;;;;;12.20;nan;99381.50;5086143;28;20467;-73
2024/01/23 07:20:50;;;;;;;135.80;56.80;;;;;;;12.13;nan;99390.19;5086625;28;20127;-72
2024/01/23 07:23:19;;;;;;;123.53;54.90;;;;;;;12.52;nan;99373.88;5085056;28;20058;-73
2024/01/23 07:25:48;;;;;;;120.53;51.42;;;;;;;12.39;nan;99371.09;5086630;28;20133;-72
2024/01/23 07:28:17;;;;;;;120.03;53.15;;;;;;;12.17;nan;99368.59;5086504;28;20068;-72
2024/01/23 07:30:56;;;;;;;114.28;49.20;;;;;;;12.02;nan;99361.50;5086603;28;20051;-72
2024/01/23 07:33:27;;;;;;;118.50;50.80;;;;;;;12.11;nan;99357.72;5083842;28;20055;-73
2024/01/23 07:35:57;;;;;;;115.20;51.10;;;;;;;12.08;nan;99344.78;5084491;28;20048;-74
2024/01/23 07:38:26;;;;;;;132.27;55.47;;;;;;;12.27;nan;99351.34;5075677;28;20129;-73
2024/01/23 07:40:55;;;;;;;131.23;56.97;;;;;;;12.12;nan;99337.31;5081880;28;20159;-73
2024/01/23 07:43:25;;;;;;;130.68;55.45;;;;;;;12.04;nan;99332.91;5057811;28;20052;-74
2024/01/23 07:45:54;;;;;;;128.05;55.38;;;;;;;12.36;nan;99331.63;5070822;28;20086;-73
2024/01/23 07:48:24;;;;;;;130.45;57.72;;;;;;;12.15;nan;99323.66;5070138;28;20052;-73
2024/01/23 07:50:53;;;;;;;129.73;58.95;;;;;;;12.25;nan;99324.19;5079239;28;20059;-72
2024/01/23 07:53:23;;;;;;;137.23;57.78;;;;;;;11.28;nan;99315.53;5085694;28;20055;-72
2024/01/23 07:55:52;;;;;;;135.40;58.08;;;;;;;11.95;nan;99312.00;5068616;28;20051;-72
2024/01/23 07:58:21;;;;;;;132.77;58.15;;;;;;;12.27;nan;99300.88;5086383;28;20597;-73
2024/01/23 08:00:50;;;;;;;142.48;58.97;;;;;;;12.21;nan;99300.84;5085866;28;20546;-73
2024/01/23 08:03:20;;;;;;;146.95;60.83;;;;;;;12.45;nan;99297.81;5051093;28;20063;-73
2024/01/23 08:05:49;;;;;;;133.70;57.13;;;;;;;12.19;nan;99294.88;5068211;28;20105;-73
2024/01/23 08:08:19;;;;;;;136.10;59.75;;;;;;;12.07;nan;99286.59;5067979;28;20054;-73
2024/01/23 08:10:51;;;;;;;133.18;59.05;;;;;;;12.39;nan;99285.28;5067897;28;20109;-73
2024/01/23 08:13:20;;;;;;;143.57;62.88;;;;;;;12.08;nan;99282.94;5066983;28;20558;-74
2024/01/23 08:15:50;;;;;;;140.30;60.47;;;;;;;12.21;nan;99282.25;5085273;28;20055;-73
2024/01/23 08:18:19;;;;;;;132.68;60.65;;;;;;;12.24;nan;99273.91;5085688;28;20072;-73
2024/01/23 08:20:48;;;;;;;155.18;60.95;;;;;;;12.54;nan;99272.75;5086155;28;20763;-73
2024/01/23 08:23:17;;;;;;;141.23;60.47;;;;;;;12.27;nan;99266.38;5084608;28;20244;-73
2024/01/23 08:25:47;;;;;;;148.80;58.97;;;;;;;12.19;nan;99261.19;5076612;28;20048;-73
2024/01/23 08:28:16;;;;;;;133.73;54.30;;;;;;;12.61;nan;99268.34;5085127;28;20083;-73
2024/01/23 08:30:46;;;;;;;142.55;59.03;;;;;;;12.79;nan;99262.56;5078786;28;20472;-74
2024/01/23 08:33:19;;;;;;;138.27;60.63;;;;;;;12.69;nan;99252.25;5052868;28;20044;-73
2024/01/23 08:35:49;;;;;;;129.77;59.17;;;;;;;12.55;nan;99247.84;5066551;28;20136;-73
2024/01/23 08:38:18;;;;;;;133.73;58.85;;;;;;;12.91;nan;99245.03;5056961;28;20151;-74
2024/01/23 08:40:47;;;;;;;128.40;58.00;;;;;;;12.69;nan;99240.78;5064680;28;20060;-74
2024/01/23 08:43:17;;;;;;;132.50;55.38;;;;;;;12.31;nan;99234.94;5063900;28;20628;-74
2024/01/23 08:45:48;;;;;;;121.07;56.15;;;;;;;12.41;nan;99246.06;5058994;28;20075;-74
2024/01/23 08:48:21;;;;;;;132.70;54.75;;;;;;;12.13;nan;99232.72;5068630;28;20044;-74
2024/01/23 08:50:51;;;;;;;;;;;;;;;12.15;nan;99231.53;5054516;28;20388;-73
2024/01/23 08:53:20;;;;;;;131.93;55.95;;;;;;;11.97;nan;99230.31;5084705;28;19935;-74
2024/01/23 08:55:49;;;;;;;127.93;56.60;;;;;;;12.04;nan;99229.38;5055782;28;20073;-74
2024/01/23 08:58:19;;;;;;;136.18;57.30;;;;;;;11.82;nan;99227.69;5061316;28;20052;-74
2024/01/23 09:00:48;;;;;;;137.38;59.25;;;;;;;12.15;nan;99220.09;5078481;28;20044;-73
2024/01/23 09:03:17;;;;;;;139.68;58.58;;;;;;;12.41;nan;99220.31;5046474;28;20091;-74
2024/01/23 09:05:47;;;;;;;135.30;60.13;;;;;;;12.12;nan;99217.81;5075542;28;20040;-72
2024/01/23 09:08:17;;;;;;;135.40;59.28;;;;;;;12.31;nan;99209.19;5052447;28;20040;-73
2024/01/23 09:10:49;;;;;;;144.77;59.47;;;;;;;12.41;nan;99216.84;5050939;28;20660;-73
2024/01/23 09:13:19;;;;;;;134.15;59.20;;;;;;;12.50;nan;99211.22;5062474;28;20848;-74
2024/01/23 09:15:48;;;;;;;131.95;57.92;;;;;;;12.40;nan;99209.88;5035923;28;20121;-74
2024/01/23 09:18:17;;;;;;;145.40;61.58;;;;;;;12.46;nan;99214.44;5045955;28;20725;-74
2024/01/23 09:20:47;;;;;;;133.15;58.35;;;;;;;12.36;nan;99205.97;5071552;28;20047;-74
2024/01/23 09:23:17;;;;;;;146.43;62.10;;;;;;;12.37;nan;99204.97;5079816;28;20063;-75
2024/01/23 09:25:47;;;;;;;145.25;63.03;;;;;;;12.38;nan;99196.00;5068387;28;20098;-75
2024/01/23 09:28:17;;;;;;;144.68;60.28;;;;;;;12.49;nan;99187.47;5067126;28;20048;-74
2024/01/23 09:30:46;;;;;;;136.43;58.20;;;;;;;12.51;nan;99188.94;5064416;28;20674;-75
2024/01/23 09:33:15;;;;;;;138.93;58.75;;;;;;;12.56;nan;99181.22;5062995;28;20143;-74
2024/01/23 09:35:44;;;;;;;138.82;60.10;;;;;;;12.48;nan;99175.25;5068201;28;20535;-75
2024/01/23 09:38:14;;;;;;;131.55;58.28;;;;;;;12.09;nan;99181.00;5067934;28;20056;-74
2024/01/23 09:40:49;;;;;;;121.43;55.38;;;;;;;12.29;nan;99176.72;5068072;28;20068;-73
2024/01/23 09:43:21;;;;;;;131.98;57.63;;;;;;;12.45;nan;99173.78;5066020;28;20068;-73
2024/01/23 09:45:51;;;;;;;126.25;56.47;;;;;;;12.47;nan;99178.91;5067948;28;20087;-74
2024/01/23 09:48:21;;;;;;;136.93;57.42;;;;;;;12.33;nan;99185.94;5059087;28;20048;-74
2024/01/23 09:50:53;;;;;;;136.80;58.60;;;;;;;12.26;nan;99179.72;5068019;28;20094;-73
2024/01/23 09:53:25;;;;;;;130.55;57.40;;;;;;;12.42;nan;99176.00;5049243;28;20584;-74
2024/01/23 09:55:55;;;;;;;145.57;58.88;;;;;;;12.53;nan;99173.63;5047739;28;20044;-73
2024/01/23 09:58:26;;;;;;;134.73;56.42;;;;;;;12.28;nan;99177.72;5061397;28;20451;-74
2024/01/23 10:00:58;;;;;;;127.93;54.92;;;;;;;12.30;nan;99170.41;5046927;28;20056;-74
2024/01/23 10:03:31;;;;;;;127.22;53.83;;;;;;;12.41;nan;99159.22;5061111;28;20145;-76
2024/01/23 10:06:01;;;;;;;132.77;58.77;;;;;;;12.44;nan;99161.50;5064125;28;20048;-73
2024/01/23 10:08:31;;;;;;;129.07;58.03;;;;;;;12.44;nan;99158.00;5060906;28;20728;-74
2024/01/23 10:11:01;;;;;;;126.18;55.30;;;;;;;12.47;nan;99155.81;5047478;28;20052;-73
2024/01/23 10:13:30;;;;;;;122.57;52.38;;;;;;;12.34;nan;99154.91;5064279;28;20134;-74
2024/01/23 10:15:59;;;;;;;124.65;53.33;;;;;;;12.36;nan;99153.66;5060923;28;20056;-74
2024/01/23 10:18:28;;;;;;;126.43;53.17;;;;;;;12.41;nan;99148.59;5029188;28;20045;-73
2024/01/23 10:20:58;;;;;;;131.20;53.92;;;;;;;12.03;nan;99157.91;5021451;28;20086;-73
2024/01/23 10:23:27;;;;;;;123.78;51.63;;;;;;;12.12;nan;99149.63;5063215;28;20509;-73
2024/01/23 10:25:58;;;;;;;119.55;52.30;;;;;;;12.26;nan;99147.06;5063350;28;20052;-74
2024/01/23 10:28:28;;;;;;;126.70;52.55;;;;;;;12.32;nan;99151.59;5072882;28;20056;-74
2024/01/23 10:30:57;;;;;;;115.72;51.70;;;;;;;12.41;nan;99137.97;5082980;28;20051;-73
2024/01/23 10:33:26;;;;;;;132.65;54.00;;;;;;;12.50;nan;99139.47;5067379;28;20048;-73
2024/01/23 10:35:57;;;;;;;131.68;55.95;;;;;;;12.34;nan;99142.44;5083877;28;20076;-73
2024/01/23 10:38:27;;;;;;;129.15;58.20;;;;;;;12.39;nan;99140.00;5084149;28;20466;-74
2024/01/23 10:40:59;;;;;;;143.18;59.78;;;;;;;12.30;nan;99141.19;5062817;28;20635;-74
2024/01/23 10:43:30;;;;;;;129.90;57.63;;;;;;;12.18;nan;99131.25;5084188;28;20117;-74
2024/01/23 10:46:02;;;;;;;143.43;62.08;;;;;;;12.57;nan;99137.69;5082106;28;20059;-74
2024/01/23 10:48:32;;;;;;;132.40;59.00;;;;;;;12.38;nan;99135.72;5064875;28;20147;-73
2024/01/23 10:51:31;;;;;;;141.48;58.40;;;;;;;12.23;nan;99134.97;5082994;28;20047;-74
2024/01/23 10:54:09;;;;;;;135.07;57.17;;;;;;;12.21;nan;99131.72;5083579;28;20040;-74
2024/01/23 10:56:44;;;;;;;123.00;55.72;;;;;;;12.25;nan;99130.31;5064127;28;20094;-74
2024/01/23 10:59:18;;;;;;;128.35;54.85;;;;;;;12.21;nan;99136.19;5085055;28;20448;-73
2024/01/23 11:01:52;;;;;;;134.68;55.53;;;;;;;12.26;nan;99126.63;5071333;28;20373;-73
2024/01/23 11:04:21;;;;;;;128.15;55.38;;;;;;;12.17;nan;99137.59;5084978;28;22223;-73
2024/01/23 11:07:23;;;;;;;121.80;53.63;;;;;;;12.30;nan;99125.25;5083600;28;20059;-73
2024/01/23 11:10:15;;;;;;;128.02;54.70;;;;;;;12.22;nan;99127.19;5074923;28;20598;-73
2024/01/23 11:13:30;;;;;;;125.28;53.58;;;;;;;12.14;nan;99136.94;5081696;28;20046;-73
2024/01/23 11:16:05;;;;;;;139.75;55.45;;;;;;;12.03;nan;99128.69;5077360;28;20056;-73
2024/01/23 11:18:34;;;;;;;126.20;54.25;;;;;;;11.84;nan;99124.84;5084403;28;20047;-73
2024/01/23 11:21:08;;;;;;;124.00;52.92;;;;;;;11.93;nan;99130.84;5063744;28;20166;-74
2024/01/23 11:23:43;;;;;;;129.00;53.45;;;;;;;11.92;nan;99130.03;5073441;28;20105;-73
2024/01/23 11:26:22;;;;;;;126.82;52.13;;;;;;;11.89;nan;99129.59;5085676;28;20051;-73
2024/01/23 11:29:01;;;;;;;135.55;56.42;;;;;;;11.96;nan;99136.59;5076419;28;20058;-74
2024/01/23 11:31:39;;;;;;;129.32;55.47;;;;;;;11.96;nan;99125.97;5081711;28;20048;-74
2024/01/23 11:34:24;;;;;;;131.48;55.50;;;;;;;11.79;nan;99132.56;5082216;28;20533;-73
2024/01/23 11:36:54;;;;;;;136.27;54.58;;;;;;;11.78;nan;99133.56;5082694;28;20044;-74
2024/01/23 11:39:25;;;;;;;143.18;57.63;;;;;;;11.91;nan;99133.69;5084881;28;20055;-74
2024/01/23 11:41:55;;;;;;;124.78;53.30;;;;;;;11.89;nan;99132.25;5071528;28;20668;-73
2024/01/23 11:44:25;;;;;;;128.50;54.95;;;;;;;11.75;nan;99125.16;5074321;28;20040;-73